Time;durP1;ratioP1;P1;durP2;ratioP2;P2;SDS_P1;SDS_P2;PMS_P1;PMS_P2;Temp;Humidity;BMP_temperature;BMP_pressure;BME280_temperature;BME280_humidity;BME280_pressure;Samples;Min_cycle;Max_cycle;Signal;HPM_P1;HPM_P2
2023/10/12 00:01:33;;;;;;;43.85;29.40;;;21.30;99.90;;;;;;5031602;28;20044;-71
2023/10/12 00:04:38;;;;;;;41.95;30.90;;;21.10;99.90;;;;;;5031281;28;20041;-69
2023/10/12 00:07:45;;;;;;;47.60;30.52;;;21.10;99.90;;;;;;5031299;28;20057;-69
2023/10/12 00:10:50;;;;;;;45.70;30.35;;;21.10;99.90;;;;;;5031658;28;20507;-69
2023/10/12 00:13:57;;;;;;;50.22;30.83;;;21.10;99.90;;;;;;5031212;28;20064;-69
2023/10/12 00:17:05;;;;;;;46.05;31.30;;;21.10;99.90;;;;;;5031394;28;20381;-69
2023/10/12 00:20:21;;;;;;;46.33;32.85;;;21.10;99.90;;;;;;5031394;28;20060;-69
2023/10/12 00:23:26;;;;;;;45.90;32.08;;;21.00;99.90;;;;;;5031439;28;20048;-70
2023/10/12 00:26:31;;;;;;;46.75;30.52;;;21.00;99.90;;;;;;5030926;28;20060;-70
2023/10/12 00:29:39;;;;;;;47.38;30.42;;;21.00;99.90;;;;;;5031468;28;20041;-70
2023/10/12 00:32:43;;;;;;;47.67;30.42;;;20.90;99.90;;;;;;5031175;28;20045;-70
2023/10/12 00:35:59;;;;;;;46.72;30.05;;;20.90;99.90;;;;;;5031276;28;20040;-70
2023/10/12 00:39:09;;;;;;;51.45;31.23;;;20.90;99.90;;;;;;5031001;28;20041;-69
2023/10/12 00:42:17;;;;;;;50.20;31.90;;;20.80;99.90;;;;;;5031128;28;20504;-69
2023/10/12 00:45:28;;;;;;;40.08;29.10;;;20.70;99.90;;;;;;5031141;28;20040;-69
2023/10/12 00:48:38;;;;;;;44.40;30.52;;;20.80;99.90;;;;;;5030875;28;20041;-69
2023/10/12 00:51:52;;;;;;;46.20;31.45;;;20.80;99.90;;;;;;5030077;28;20052;-70
2023/10/12 00:54:57;;;;;;;46.85;33.28;;;20.90;99.90;;;;;;5029989;28;20385;-70
2023/10/12 00:58:05;;;;;;;47.88;33.17;;;20.80;99.90;;;;;;5031011;28;20048;-71
2023/10/12 01:01:09;;;;;;;47.08;32.42;;;20.90;99.90;;;;;;5030982;28;20048;-70
2023/10/12 01:04:16;;;;;;;49.28;33.92;;;21.10;99.90;;;;;;5030931;28;20068;-70
2023/10/12 01:07:25;;;;;;;53.53;33.72;;;20.80;99.90;;;;;;5034389;28;20416;-70
2023/10/12 01:10:31;;;;;;;50.35;33.13;;;20.80;99.90;;;;;;5034903;28;20180;-70
2023/10/12 01:13:35;;;;;;;47.80;33.80;;;20.80;99.90;;;;;;5034583;28;20056;-70
2023/10/12 01:19:56;;;;;;;49.45;34.35;;;20.90;99.90;;;;;;5034592;28;20036;-70
2023/10/12 01:23:00;;;;;;;55.30;34.15;;;20.80;99.90;;;;;;5034008;28;20049;-70
2023/10/12 01:26:10;;;;;;;51.88;33.67;;;20.80;99.90;;;;;;5034656;28;20614;-70
2023/10/12 01:29:21;;;;;;;44.45;32.38;;;20.70;99.90;;;;;;5034759;28;20057;-70
2023/10/12 01:32:27;;;;;;;49.22;34.38;;;20.70;99.90;;;;;;5034427;28;20068;-70
2023/10/12 01:35:38;;;;;;;49.67;34.20;;;20.70;99.90;;;;;;5033478;28;20064;-70
2023/10/12 01:38:43;;;;;;;51.58;34.15;;;20.70;99.90;;;;;;5034118;28;20069;-70
2023/10/12 01:41:47;;;;;;;49.63;34.13;;;20.50;99.90;;;;;;5034542;28;20413;-69
2023/10/12 01:44:53;;;;;;;51.05;34.13;;;20.50;99.90;;;;;;5034157;28;20040;-69
2023/10/12 01:48:15;;;;;;;49.20;34.75;;;20.60;99.90;;;;;;5033332;28;20056;-69
2023/10/12 01:51:24;;;;;;;46.75;35.53;;;20.60;99.90;;;;;;5033114;28;20040;-69
2023/10/12 01:54:29;;;;;;;51.47;34.63;;;20.50;99.90;;;;;;5034043;28;20041;-69
2023/10/12 01:57:37;;;;;;;49.45;33.60;;;20.60;99.90;;;;;;5033847;28;20059;-70
2023/10/12 02:00:42;;;;;;;46.58;30.80;;;20.50;99.90;;;;;;5033069;28;20044;-70
2023/10/12 02:03:47;;;;;;;46.90;32.15;;;20.40;99.90;;;;;;5032894;28;20048;-70
2023/10/12 02:06:52;;;;;;;45.83;31.45;;;20.40;99.90;;;;;;5033050;28;20086;-70
2023/10/12 02:09:58;;;;;;;42.65;30.30;;;20.40;99.90;;;;;;5033871;28;20040;-69
2023/10/12 02:13:01;;;;;;;42.90;30.10;;;20.60;99.90;;;;;;5033469;28;20057;-70
2023/10/12 02:16:07;;;;;;;46.70;29.63;;;20.00;99.90;;;;;;5033698;28;20048;-69
2023/10/12 02:19:19;;;;;;;44.90;30.75;;;20.40;99.90;;;;;;5032042;28;20064;-69
2023/10/12 02:22:24;;;;;;;43.95;30.33;;;20.40;99.90;;;;;;5033425;28;20053;-69
2023/10/12 02:25:28;;;;;;;45.08;30.90;;;20.20;99.90;;;;;;5033659;28;20413;-70
2023/10/12 02:28:37;;;;;;;44.85;29.02;;;20.30;99.90;;;;;;5032333;28;20048;-69
2023/10/12 02:32:22;;;;;;;36.70;28.17;;;20.20;99.90;;;;;;5033546;28;20555;-69
2023/10/12 02:35:12;;;;;;;45.65;29.77;;;20.10;99.90;;;;;;5033102;28;20053;-70
2023/10/12 02:38:16;;;;;;;45.80;32.00;;;20.70;99.90;;;;;;5033453;28;20044;-69
2023/10/12 02:41:24;;;;;;;52.38;31.92;;;20.00;99.90;;;;;;5033370;28;20052;-69
2023/10/12 02:44:33;;;;;;;45.60;31.33;;;20.00;99.90;;;;;;5033003;28;20044;-70
2023/10/12 02:47:41;;;;;;;45.78;32.00;;;19.30;99.90;;;;;;5032852;28;20056;-70
2023/10/12 02:50:57;;;;;;;41.28;28.83;;;20.20;99.90;;;;;;5032962;28;20045;-70
2023/10/12 02:54:03;;;;;;;44.42;29.35;;;20.20;99.90;;;;;;5032273;28;20052;-70
2023/10/12 02:57:07;;;;;;;46.05;29.95;;;20.40;99.90;;;;;;5031986;28;20512;-70
2023/10/12 03:00:14;;;;;;;45.58;29.42;;;20.00;99.90;;;;;;5032761;28;20048;-71
2023/10/12 03:03:31;;;;;;;44.03;29.73;;;20.90;99.90;;;;;;5033025;28;20052;-70
2023/10/12 03:06:52;;;;;;;47.40;30.30;;;20.40;99.90;;;;;;5031796;28;20091;-70
2023/10/12 03:09:59;;;;;;;43.42;30.13;;;20.40;99.90;;;;;;5032861;28;20068;-70
2023/10/12 03:13:04;;;;;;;50.58;31.25;;;19.50;99.90;;;;;;5032398;28;20056;-71
2023/10/12 03:19:23;;;;;;;43.30;30.33;;;20.10;99.90;;;;;;5032282;28;20044;-71
2023/10/12 03:22:36;;;;;;;44.97;31.15;;;22.30;99.90;;;;;;5032165;28;20044;-69
2023/10/12 03:25:45;;;;;;;48.22;31.85;;;19.80;99.90;;;;;;5032235;28;20523;-69
2023/10/12 03:28:50;;;;;;;47.80;32.72;;;;;;;;;;5032150;28;20065;-70
2023/10/12 03:34:59;;;;;;;45.25;32.60;;;;;;;;;;5032349;28;20048;-70
2023/10/12 03:38:12;;;;;;;47.60;32.17;;;19.90;99.90;;;;;;5032058;28;20048;-69
2023/10/12 03:44:36;;;;;;;50.10;32.78;;;19.50;99.90;;;;;;5032089;28;20052;-69
2023/10/12 03:48:03;;;;;;;44.53;30.65;;;18.60;99.90;;;;;;5032002;28;20052;-70
2023/10/12 03:54:26;;;;;;;48.22;32.92;;;19.90;99.90;;;;;;5031915;28;20048;-70
2023/10/12 03:57:45;;;;;;;47.17;33.78;;;19.30;99.90;;;;;;5031527;28;20044;-70
2023/10/12 04:01:12;;;;;;;49.10;33.50;;;19.30;99.90;;;;;;5031760;28;20670;-71
2023/10/12 04:07:36;;;;;;;50.28;32.42;;;19.60;99.90;;;;;;5031959;28;20397;-70
2023/10/12 04:17:07;;;;;;;49.05;34.60;;;19.80;99.90;;;;;;5031833;28;20048;-70
2023/10/12 04:20:21;;;;;;;47.35;32.85;;;19.90;99.90;;;;;;5031739;28;20519;-70
2023/10/12 04:23:48;;;;;;;50.70;32.45;;;;;;;;;;5031558;28;20040;-70
2023/10/12 04:30:20;;;;;;;49.80;31.40;;;;;;;;;;5031462;28;20045;-71
2023/10/12 04:33:29;;;;;;;48.60;32.60;;;20.00;99.90;;;;;;5030264;28;20048;-70
2023/10/12 04:36:44;;;;;;;48.35;31.70;;;19.90;99.90;;;;;;5031170;28;20049;-69
2023/10/12 04:39:49;;;;;;;49.25;33.20;;;19.70;99.90;;;;;;5030512;28;20044;-70
2023/10/12 04:42:53;;;;;;;46.85;32.75;;;19.90;99.90;;;;;;5030711;28;20221;-70
2023/10/12 04:49:53;;;;;;;53.70;34.88;;;19.70;99.90;;;;;;5030999;28;20061;-70
2023/10/12 04:52:40;;;;;;;49.00;34.63;;;19.20;99.90;;;;;;5031397;28;20047;-69
2023/10/12 04:55:47;;;;;;;53.58;34.63;;;19.80;99.90;;;;;;5030702;28;20492;-70
2023/10/12 04:58:57;;;;;;;57.63;35.47;;;19.70;99.90;;;;;;5030639;28;20052;-70
2023/10/12 05:08:24;;;;;;;56.65;33.65;;;19.60;99.90;;;;;;5030611;28;20045;-70
2023/10/12 05:11:28;;;;;;;52.72;32.92;;;19.70;99.90;;;;;;5030877;28;20049;-68
2023/10/12 05:14:33;;;;;;;54.38;32.28;;;19.70;99.90;;;;;;5030632;28;20048;-70
2023/10/12 05:17:37;;;;;;;53.50;32.83;;;19.70;99.90;;;;;;5030638;28;20101;-70
2023/10/12 05:20:41;;;;;;;59.85;34.03;;;19.50;99.90;;;;;;5030709;28;20076;-70
2023/10/12 05:23:45;;;;;;;70.30;36.33;;;19.80;99.90;;;;;;5030573;28;20504;-70
2023/10/12 05:26:54;;;;;;;60.22;35.60;;;20.00;99.90;;;;;;5030494;28;20057;-70
2023/10/12 05:30:05;;;;;;;80.05;38.80;;;19.80;99.90;;;;;;5030638;28;20405;-70
2023/10/12 05:33:28;;;;;;;79.72;39.22;;;19.80;99.90;;;;;;5030376;28;20044;-70
2023/10/12 05:36:32;;;;;;;74.28;36.35;;;19.80;99.90;;;;;;5030407;28;20072;-63
2023/10/12 05:39:46;;;;;;;70.25;38.20;;;19.80;99.90;;;;;;5030130;28;20048;-62
2023/10/12 05:42:50;;;;;;;66.75;37.03;;;20.30;99.90;;;;;;5030062;28;20085;-63
2023/10/12 05:45:54;;;;;;;72.25;40.10;;;20.30;99.90;;;;;;5030146;28;20144;-63
2023/10/12 05:48:58;;;;;;;67.07;39.10;;;19.50;99.90;;;;;;5029796;28;20056;-62
2023/10/12 05:52:04;;;;;;;70.57;39.85;;;20.00;99.90;;;;;;5031390;28;20442;-63
2023/10/12 05:55:21;;;;;;;73.93;37.47;;;20.50;99.90;;;;;;5033691;28;20056;-63
2023/10/12 05:58:25;;;;;;;72.32;37.17;;;20.00;99.90;;;;;;5034054;28;20393;-63
2023/10/12 06:01:35;;;;;;;57.78;36.22;;;20.00;99.90;;;;;;5033861;28;20041;-63
2023/10/12 06:04:41;;;;;;;55.90;34.10;;;20.10;99.90;;;;;;5033806;28;20053;-63
2023/10/12 06:07:45;;;;;;;57.88;35.47;;;20.20;99.90;;;;;;5033376;28;20061;-63
2023/10/12 06:10:48;;;;;;;63.42;36.15;;;20.30;99.90;;;;;;5033363;28;20048;-63
2023/10/12 06:13:53;;;;;;;56.95;34.05;;;20.40;99.90;;;;;;5033180;28;20061;-63
2023/10/12 06:17:02;;;;;;;63.00;36.28;;;20.60;99.90;;;;;;5033347;28;20048;-63
2023/10/12 06:20:15;;;;;;;68.57;35.33;;;20.50;99.90;;;;;;5033527;28;20044;-63
2023/10/12 06:23:20;;;;;;;57.75;35.58;;;20.20;99.90;;;;;;5033408;28;20047;-65
2023/10/12 06:26:30;;;;;;;67.90;35.65;;;20.50;99.90;;;;;;5033014;28;20045;-61
2023/10/12 06:29:36;;;;;;;67.60;35.65;;;20.50;99.90;;;;;;5033312;28;20064;-64
2023/10/12 06:32:40;;;;;;;71.03;35.22;;;20.60;99.90;;;;;;5032848;28;20053;-64
2023/10/12 06:35:59;;;;;;;55.90;34.20;;;20.70;99.90;;;;;;5033242;28;20393;-64
2023/10/12 06:42:26;;;;;;;59.55;32.95;;;20.80;99.90;;;;;;5032652;28;20511;-63
2023/10/12 06:45:31;;;;;;;63.25;33.90;;;20.90;99.90;;;;;;5032878;28;20041;-64
2023/10/12 06:51:39;;;;;;;63.92;36.33;;;20.90;99.90;;;;;;5032887;28;20044;-62
2023/10/12 06:54:49;;;;;;;53.45;35.85;;;20.90;99.90;;;;;;5032848;28;20535;-62
2023/10/12 06:57:53;;;;;;;63.33;35.65;;;20.90;99.90;;;;;;5032816;28;20504;-62
2023/10/12 07:01:15;;;;;;;61.08;35.72;;;21.00;99.90;;;;;;5032264;28;20121;-62
2023/10/12 07:04:27;;;;;;;63.35;35.83;;;21.10;99.90;;;;;;5031932;28;20041;-62
2023/10/12 07:07:41;;;;;;;56.33;33.65;;;21.10;99.90;;;;;;5032130;28;20433;-62
2023/10/12 07:10:53;;;;;;;64.57;38.63;;;21.20;99.90;;;;;;5032454;28;20060;-62
2023/10/12 07:13:57;;;;;;;69.78;39.05;;;21.30;99.90;;;;;;5032071;28;20056;-62
2023/10/12 07:17:02;;;;;;;60.47;38.35;;;21.40;99.90;;;;;;5032548;28;20040;-62
2023/10/12 07:20:06;;;;;;;70.05;39.40;;;21.40;99.90;;;;;;5031390;28;20052;-62
2023/10/12 07:23:28;;;;;;;57.88;37.95;;;21.30;99.90;;;;;;5031970;28;20048;-62
2023/10/12 07:26:31;;;;;;;;;;;21.40;99.90;;;;;;5032647;28;20048;-62
2023/10/12 07:29:37;;;;;;;72.68;39.35;;;21.40;99.90;;;;;;5032081;28;19917;-62
2023/10/12 07:32:44;;;;;;;62.70;37.50;;;21.40;99.90;;;;;;5031910;28;20048;-62
2023/10/12 07:35:53;;;;;;;62.58;40.58;;;21.60;99.90;;;;;;5031577;28;20044;-61
2023/10/12 07:39:14;;;;;;;66.53;38.22;;;21.70;99.90;;;;;;5031921;28;20511;-62
2023/10/12 07:42:27;;;;;;;;;;;21.90;99.90;;;;;;5032484;28;20048;-61
2023/10/12 07:45:48;;;;;;;65.15;36.47;;;22.10;99.90;;;;;;5031694;28;19916;-62
2023/10/12 07:48:52;;;;;;;58.92;36.80;;;22.20;99.90;;;;;;5031291;28;20056;-62
2023/10/12 07:55:17;;;;;;;70.60;41.10;;;22.40;99.90;;;;;;5031527;28;20072;-62
2023/10/12 07:58:21;;;;;;;62.97;39.28;;;22.30;99.90;;;;;;5031703;28;20043;-62
2023/10/12 08:04:33;;;;;;;69.07;39.70;;;22.40;99.90;;;;;;5031225;28;20144;-62
2023/10/12 08:07:59;;;;;;;55.97;36.75;;;22.50;99.90;;;;;;5031226;28;20048;-62
2023/10/12 08:11:44;;;;;;;86.85;49.38;;;22.60;99.90;;;;;;5031492;28;20096;-62
2023/10/12 08:17:33;;;;;;;68.13;42.25;;;22.70;99.90;;;;;;5031053;28;20061;-62
2023/10/12 08:20:53;;;;;;;67.97;41.20;;;22.80;99.90;;;;;;5031260;28;20116;-62
2023/10/12 08:27:12;;;;;;;69.50;44.03;;;23.10;99.90;;;;;;5030676;28;20073;-62
2023/10/12 08:30:48;;;;;;;62.90;38.15;;;23.10;99.90;;;;;;5030919;28;20056;-62
2023/10/12 08:33:58;;;;;;;59.80;39.42;;;23.30;99.90;;;;;;5030860;28;20045;-62
2023/10/12 08:40:19;;;;;;;58.20;38.53;;;23.50;99.90;;;;;;5030565;28;20055;-62
2023/10/12 08:43:44;;;;;;;69.25;42.00;;;23.60;99.90;;;;;;5030481;28;20044;-62
2023/10/12 08:46:56;;;;;;;65.53;41.38;;;23.60;99.90;;;;;;5030973;28;20045;-62
2023/10/12 08:53:09;;;;;;;68.85;42.65;;;23.70;99.90;;;;;;5030580;28;20091;-62
2023/10/12 08:56:13;;;;;;;48.72;34.55;;;23.70;99.90;;;;;;5030618;28;20049;-62
2023/10/12 08:59:17;;;;;;;58.97;38.08;;;23.80;99.90;;;;;;5030604;28;20044;-62
2023/10/12 09:02:22;;;;;;;57.92;36.67;;;23.90;99.90;;;;;;5030820;28;20319;-62
2023/10/12 09:05:30;;;;;;;43.78;29.23;;;24.00;99.90;;;;;;5030433;28;20045;-62
2023/10/12 09:11:38;;;;;;;46.78;33.03;;;24.10;99.90;;;;;;5030716;28;20072;-62
2023/10/12 09:14:43;;;;;;;40.30;28.10;;;24.30;99.90;;;;;;5030502;28;20060;-62
2023/10/12 09:17:48;;;;;;;54.45;35.83;;;24.50;99.90;;;;;;5030795;28;20532;-62
2023/10/12 09:24:21;;;;;;;48.10;32.42;;;24.90;99.90;;;;;;5030201;28;20052;-62
2023/10/12 09:27:36;;;;;;;59.80;38.30;;;25.00;99.90;;;;;;5032385;28;20044;-62
2023/10/12 09:30:44;;;;;;;34.70;24.80;;;25.00;99.40;;;;;;5034126;28;20052;-62
2023/10/12 09:34:31;;;;;;;42.50;28.60;;;25.10;99.70;;;;;;5034313;28;20049;-62
2023/10/12 09:37:18;;;;;;;53.85;36.75;;;25.10;99.40;;;;;;5032988;28;20060;-64
2023/10/12 09:40:52;;;;;;;36.40;27.13;;;24.90;99.10;;;;;;5033762;28;20475;-65
2023/10/12 09:43:53;;;;;;;43.22;30.70;;;25.00;99.30;;;;;;5034107;28;20052;-62
2023/10/12 09:46:59;;;;;;;40.45;29.90;;;25.00;98.90;;;;;;5033107;28;20052;-63
2023/10/12 09:50:13;;;;;;;57.22;35.42;;;25.10;99.10;;;;;;5031869;28;20057;-61
2023/10/12 09:53:26;;;;;;;49.10;34.25;;;25.30;98.80;;;;;;5031968;28;20041;-61
2023/10/12 09:56:46;;;;;;;44.38;32.90;;;25.20;98.80;;;;;;5033257;28;20046;-62
2023/10/12 09:59:53;;;;;;;45.83;29.77;;;25.60;98.30;;;;;;5033244;28;20536;-62
2023/10/12 10:02:59;;;;;;;40.08;29.55;;;25.60;98.40;;;;;;5032013;28;20536;-62
2023/10/12 10:06:19;;;;;;;51.90;32.47;;;26.00;98.00;;;;;;5033899;28;20040;-62
2023/10/12 10:12:27;;;;;;;35.42;25.48;;;26.10;97.70;;;;;;5033282;28;20603;-61
2023/10/12 10:15:38;;;;;;;31.80;22.63;;;26.00;97.60;;;;;;5032872;28;20064;-62
2023/10/12 10:19:13;;;;;;;37.25;25.90;;;26.00;97.60;;;;;;5033415;28;20052;-62
2023/10/12 10:22:21;;;;;;;38.38;28.00;;;25.80;97.80;;;;;;5033371;28;20032;-61
2023/10/12 10:25:35;;;;;;;37.67;28.15;;;25.90;97.80;;;;;;5033585;28;20045;-62
2023/10/12 10:28:48;;;;;;;38.95;28.13;;;25.80;97.90;;;;;;5033475;28;20168;-62
2023/10/12 10:31:51;;;;;;;53.45;34.42;;;25.80;97.30;;;;;;5033478;28;20397;-61
2023/10/12 10:34:59;;;;;;;35.85;25.90;;;25.80;97.40;;;;;;5032917;28;20429;-61
2023/10/12 10:38:04;;;;;;;43.60;30.30;;;25.70;97.20;;;;;;5032902;28;20052;-63
2023/10/12 10:41:08;;;;;;;37.38;28.35;;;25.70;97.30;;;;;;5033341;28;20585;-65
2023/10/12 10:44:17;;;;;;;41.90;29.20;;;25.90;97.60;;;;;;5032957;28;20040;-65
2023/10/12 10:47:21;;;;;;;30.08;22.98;;;25.90;97.50;;;;;;5032893;28;20060;-63
2023/10/12 10:50:26;;;;;;;39.80;27.48;;;25.90;97.50;;;;;;5032932;28;20056;-64
2023/10/12 10:53:31;;;;;;;32.55;23.65;;;25.90;97.50;;;;;;5032967;28;20045;-65
2023/10/12 10:56:47;;;;;;;42.22;31.00;;;25.80;97.30;;;;;;5032587;28;20060;-65
2023/10/12 10:59:52;;;;;;;29.38;22.50;;;25.80;97.20;;;;;;5032012;28;20401;-63
2023/10/12 11:02:56;;;;;;;51.40;30.48;;;25.80;97.20;;;;;;5031580;28;20040;-63
2023/10/12 11:06:01;;;;;;;33.80;24.52;;;25.90;97.10;;;;;;5032582;28;20091;-63
2023/10/12 11:09:06;;;;;;;41.25;27.92;;;26.00;97.00;;;;;;5032220;28;20056;-63
2023/10/12 11:12:14;;;;;;;44.45;26.65;;;26.10;96.80;;;;;;5032162;28;20085;-63
2023/10/12 11:15:20;;;;;;;35.60;24.10;;;26.20;96.50;;;;;;5032249;28;20052;-62
2023/10/12 11:18:24;;;;;;;31.17;21.92;;;26.20;96.50;;;;;;5032510;28;20036;-63
2023/10/12 11:21:28;;;;;;;33.50;24.42;;;25.60;96.40;;;;;;5032010;28;20051;-63
2023/10/12 11:24:34;;;;;;;29.63;21.85;;;26.40;96.30;;;;;;5032070;28;20049;-63
2023/10/12 11:27:39;;;;;;;28.90;22.02;;;27.40;96.40;;;;;;5031710;28;20076;-63
2023/10/12 11:30:43;;;;;;;37.95;25.50;;;26.40;96.00;;;;;;5031417;28;20060;-64
2023/10/12 11:33:51;;;;;;;36.50;24.38;;;26.40;95.10;;;;;;5032184;28;20036;-63
2023/10/12 11:36:57;;;;;;;28.88;21.85;;;26.10;95.30;;;;;;5032048;28;20048;-63
2023/10/12 11:40:06;;;;;;;30.52;22.92;;;26.40;95.30;;;;;;5031867;28;20044;-62
2023/10/12 11:43:10;;;;;;;32.50;24.42;;;26.40;95.30;;;;;;5031839;28;20393;-62
2023/10/12 11:46:14;;;;;;;35.40;25.90;;;26.40;95.40;;;;;;5031057;28;20045;-64
2023/10/12 11:49:19;;;;;;;40.17;28.17;;;26.40;95.50;;;;;;5031339;28;20060;-63
2023/10/12 11:52:30;;;;;;;43.83;28.63;;;26.40;95.50;;;;;;5031579;28;20040;-63
2023/10/12 11:55:34;;;;;;;31.58;23.75;;;26.30;95.00;;;;;;5031613;28;20061;-63
2023/10/12 11:58:38;;;;;;;37.53;26.13;;;26.40;95.20;;;;;;5031531;28;20049;-63
2023/10/12 12:01:42;;;;;;;28.58;22.23;;;26.40;95.30;;;;;;5031578;28;20060;-63
2023/10/12 12:04:46;;;;;;;38.00;27.10;;;26.40;95.30;;;;;;5031631;28;20116;-63
2023/10/12 12:07:53;;;;;;;53.03;31.45;;;;;;;;;;5031315;28;20044;-63
2023/10/12 12:11:03;;;;;;;42.33;27.63;;;26.40;95.10;;;;;;5031562;28;20048;-63
2023/10/12 12:14:07;;;;;;;44.85;29.27;;;26.40;95.10;;;;;;5030692;28;20049;-63
2023/10/12 12:17:11;;;;;;;46.20;28.27;;;26.40;95.30;;;;;;5030005;28;20060;-64
2023/10/12 12:20:20;;;;;;;31.73;22.95;;;26.40;95.30;;;;;;5031407;28;20056;-64
2023/10/12 12:23:27;;;;;;;31.80;23.90;;;26.40;95.20;;;;;;5030995;28;20044;-64
2023/10/12 12:26:33;;;;;;;36.65;26.52;;;26.40;95.00;;;;;;5030826;28;20056;-63
2023/10/12 12:29:37;;;;;;;31.75;24.20;;;26.40;95.00;;;;;;5030606;28;20060;-63
2023/10/12 12:32:41;;;;;;;38.78;26.88;;;25.90;95.00;;;;;;5030499;28;20048;-63
2023/10/12 12:35:47;;;;;;;40.53;28.35;;;26.40;95.10;;;;;;5030954;28;20049;-63
2023/10/12 12:38:57;;;;;;;47.38;31.50;;;26.30;95.00;;;;;;5030890;28;20060;-63
2023/10/12 12:42:02;;;;;;;40.30;29.08;;;26.30;94.80;;;;;;5029752;28;20044;-63
2023/10/12 12:45:06;;;;;;;45.17;29.60;;;26.30;95.00;;;;;;5031079;28;20041;-64
2023/10/12 12:48:10;;;;;;;41.40;30.10;;;26.30;94.80;;;;;;5031114;28;20060;-64
2023/10/12 12:51:15;;;;;;;51.38;30.15;;;26.30;95.00;;;;;;5030938;28;20480;-63
2023/10/12 12:54:19;;;;;;;26.50;21.63;;;26.30;95.10;;;;;;5030558;28;20159;-64
2023/10/12 12:57:25;;;;;;;26.48;20.63;;;26.30;95.00;;;;;;5030632;28;20504;-64
2023/10/12 13:00:33;;;;;;;44.47;28.30;;;26.30;94.80;;;;;;5030640;28;20412;-63
2023/10/12 13:03:37;;;;;;;38.78;24.52;;;26.30;94.90;;;;;;5030602;28;20040;-63
2023/10/12 13:06:41;;;;;;;58.05;29.83;;;26.40;94.80;;;;;;5030039;28;20056;-64
2023/10/12 13:09:48;;;;;;;31.85;22.35;;;26.40;94.50;;;;;;5030432;28;20049;-63
2023/10/12 13:12:52;;;;;;;34.40;22.45;;;26.40;94.30;;;;;;5030411;28;20048;-63
2023/10/12 13:15:57;;;;;;;27.98;21.77;;;26.40;94.30;;;;;;5030933;28;20064;-64
2023/10/12 13:19:01;;;;;;;26.58;20.10;;;26.40;94.50;;;;;;5030660;28;20389;-64
2023/10/12 13:22:06;;;;;;;31.48;21.55;;;26.40;94.30;;;;;;5030400;28;20049;-63
2023/10/12 13:25:10;;;;;;;25.90;19.42;;;26.20;94.20;;;;;;5030613;28;20068;-63
2023/10/12 13:28:14;;;;;;;21.48;18.95;;;26.30;94.10;;;;;;5030312;28;20056;-64
2023/10/12 13:31:18;;;;;;;40.25;27.15;;;26.40;94.40;;;;;;5030256;28;20048;-64
2023/10/12 13:34:23;;;;;;;29.23;21.30;;;26.20;94.20;;;;;;5030556;28;20036;-64
2023/10/12 13:37:30;;;;;;;26.73;20.85;;;26.30;94.20;;;;;;5030201;28;20048;-64
2023/10/12 13:40:39;;;;;;;30.00;21.05;;;25.40;93.70;;;;;;5030212;28;20072;-64
2023/10/12 13:43:48;;;;;;;31.13;23.02;;;26.20;94.10;;;;;;5030417;28;20049;-64
2023/10/12 13:46:52;;;;;;;23.60;19.90;;;26.20;94.50;;;;;;5030586;28;20357;-64
2023/10/12 13:49:56;;;;;;;25.10;20.40;;;26.20;94.70;;;;;;5030297;28;20061;-64
2023/10/12 13:53:00;;;;;;;23.67;19.40;;;26.20;95.00;;;;;;5030332;28;20072;-64
2023/10/12 13:56:07;;;;;;;43.88;29.63;;;26.20;95.10;;;;;;5030513;28;20048;-64
2023/10/12 13:59:14;;;;;;;44.80;29.98;;;26.10;95.80;;;;;;5030126;28;20049;-64
2023/10/12 14:02:18;;;;;;;32.67;24.50;;;26.20;96.40;;;;;;5030327;28;20401;-64
2023/10/12 14:05:29;;;;;;;39.78;27.48;;;26.20;96.70;;;;;;5030025;28;20036;-64
2023/10/12 14:08:40;;;;;;;40.63;27.40;;;27.50;97.30;;;;;;5030054;28;20068;-64
2023/10/12 14:11:47;;;;;;;;;;;26.10;97.00;;;;;;5030307;28;20523;-64
2023/10/12 14:14:51;;;;;;;45.30;29.20;;;26.20;97.30;;;;;;5032284;28;19916;-64
2023/10/12 14:17:55;;;;;;;43.20;28.63;;;26.10;97.30;;;;;;5033691;28;20420;-64
2023/10/12 14:20:59;;;;;;;32.88;22.67;;;26.00;97.20;;;;;;5033483;28;20657;-64
2023/10/12 14:24:05;;;;;;;36.47;24.95;;;26.10;97.50;;;;;;5033455;28;20052;-64
2023/10/12 14:27:08;;;;;;;28.95;21.63;;;26.10;97.40;;;;;;5033302;28;20516;-64
2023/10/12 14:30:15;;;;;;;29.08;22.70;;;26.00;97.40;;;;;;5033094;28;20048;-64
2023/10/12 14:33:19;;;;;;;38.78;24.77;;;26.80;97.70;;;;;;5033110;28;20045;-64
2023/10/12 14:36:23;;;;;;;27.15;20.98;;;25.50;97.50;;;;;;5033066;28;20191;-64
2023/10/12 14:39:29;;;;;;;31.90;22.60;;;25.90;97.40;;;;;;5033193;28;20401;-63
2023/10/12 14:42:36;;;;;;;30.60;21.52;;;25.80;97.70;;;;;;5033090;28;20048;-64
2023/10/12 14:45:45;;;;;;;43.90;27.25;;;25.80;97.80;;;;;;5033029;28;20053;-64
2023/10/12 14:48:52;;;;;;;34.08;23.60;;;25.80;97.90;;;;;;5032674;28;20049;-64
2023/10/12 14:51:56;;;;;;;32.17;22.83;;;25.90;98.00;;;;;;5032899;28;20524;-64
2023/10/12 14:55:00;;;;;;;32.03;22.88;;;25.70;97.80;;;;;;5032851;28;20048;-64
2023/10/12 14:58:07;;;;;;;48.35;29.38;;;25.70;97.90;;;;;;5032363;28;20393;-64
2023/10/12 15:01:13;;;;;;;44.97;29.95;;;24.30;97.80;;;;;;5032780;28;20052;-64
2023/10/12 15:04:17;;;;;;;35.70;25.17;;;25.70;98.20;;;;;;5032202;28;20512;-64
2023/10/12 15:07:21;;;;;;;32.60;25.23;;;25.60;98.20;;;;;;5032162;28;20136;-66
2023/10/12 15:10:25;;;;;;;41.40;24.90;;;25.30;98.10;;;;;;5032217;28;20516;-64
2023/10/12 15:13:29;;;;;;;30.25;22.33;;;25.50;98.20;;;;;;5031666;28;20072;-67
2023/10/12 15:16:33;;;;;;;44.38;24.08;;;25.50;98.30;;;;;;5032731;28;20052;-68
2023/10/12 15:19:37;;;;;;;30.58;22.20;;;25.50;98.40;;;;;;5032466;28;20080;-65
2023/10/12 15:22:42;;;;;;;33.28;23.00;;;26.70;98.80;;;;;;5031730;28;20512;-65
2023/10/12 15:25:47;;;;;;;33.63;23.38;;;25.50;98.40;;;;;;5031953;28;20045;-66
2023/10/12 15:28:53;;;;;;;40.50;26.27;;;25.50;98.70;;;;;;5031988;28;20480;-66
2023/10/12 15:31:57;;;;;;;27.48;21.27;;;25.30;98.60;;;;;;5032067;28;20500;-66
2023/10/12 15:35:01;;;;;;;32.35;23.90;;;25.30;98.80;;;;;;5032317;28;20067;-66
2023/10/12 15:38:05;;;;;;;34.40;22.90;;;26.70;99.20;;;;;;5032193;28;20418;-67
2023/10/12 15:41:09;;;;;;;43.40;28.33;;;25.30;98.70;;;;;;5032130;28;20053;-65
2023/10/12 15:44:13;;;;;;;34.92;25.05;;;25.30;98.90;;;;;;5031639;28;20075;-67
2023/10/12 15:47:17;;;;;;;41.10;28.63;;;25.30;98.90;;;;;;5031716;28;20037;-66
2023/10/12 15:50:21;;;;;;;36.75;26.67;;;25.20;98.80;;;;;;5031664;28;20049;-66
2023/10/12 15:53:25;;;;;;;39.50;25.92;;;25.20;98.90;;;;;;5031604;28;20044;-65
2023/10/12 15:56:29;;;;;;;39.97;26.20;;;25.90;99.40;;;;;;5031813;28;20064;-66
2023/10/12 15:59:33;;;;;;;41.60;25.27;;;25.10;98.90;;;;;;5031472;28;20052;-67
2023/10/12 16:02:37;;;;;;;35.50;24.98;;;25.10;99.10;;;;;;5031652;28;20041;-67
2023/10/12 16:05:42;;;;;;;43.95;26.92;;;25.10;99.30;;;;;;5031297;28;20044;-64
2023/10/12 16:08:48;;;;;;;35.03;24.42;;;25.00;99.00;;;;;;5031182;28;20504;-65
2023/10/12 16:11:52;;;;;;;38.97;25.95;;;25.00;98.90;;;;;;5030983;28;20052;-64
2023/10/12 16:14:56;;;;;;;37.78;23.52;;;25.00;99.10;;;;;;5031442;28;20057;-65
2023/10/12 16:18:00;;;;;;;45.00;26.42;;;25.00;99.20;;;;;;5031180;28;20053;-67
2023/10/12 16:21:09;;;;;;;37.33;25.88;;;25.00;99.20;;;;;;5031470;28;20048;-67
2023/10/12 16:24:13;;;;;;;39.83;26.77;;;24.90;99.10;;;;;;5031248;28;20049;-66
2023/10/12 16:27:19;;;;;;;36.33;24.15;;;24.80;99.10;;;;;;5031029;28;20044;-63
2023/10/12 16:30:23;;;;;;;40.05;25.33;;;24.80;99.00;;;;;;5030888;28;20067;-65
2023/10/12 16:33:27;;;;;;;35.50;24.38;;;24.80;98.90;;;;;;5030908;28;20088;-65
2023/10/12 16:36:31;;;;;;;35.00;23.23;;;24.60;98.40;;;;;;5030355;28;20056;-66
2023/10/12 16:39:36;;;;;;;34.15;22.08;;;24.70;98.70;;;;;;5030999;28;20064;-66
2023/10/12 16:42:42;;;;;;;42.45;24.25;;;24.50;98.70;;;;;;5030871;28;20052;-65
2023/10/12 16:45:46;;;;;;;40.50;22.20;;;24.60;98.60;;;;;;5030659;28;20064;-65
2023/10/12 16:48:50;;;;;;;37.45;23.83;;;24.60;98.60;;;;;;5030801;28;20092;-67
2023/10/12 16:51:54;;;;;;;33.72;23.23;;;24.60;98.60;;;;;;5030682;28;20064;-66
2023/10/12 16:54:59;;;;;;;36.22;23.27;;;24.50;98.50;;;;;;5029810;28;20040;-67
2023/10/12 16:58:05;;;;;;;40.33;22.10;;;24.50;98.80;;;;;;5030818;28;20048;-67
2023/10/12 17:01:14;;;;;;;39.78;24.67;;;24.50;98.80;;;;;;5029507;28;20048;-69
2023/10/12 17:04:27;;;;;;;36.35;23.83;;;24.40;98.70;;;;;;5028109;28;20401;-70
2023/10/12 17:07:30;;;;;;;37.78;23.05;;;24.40;98.90;;;;;;5028834;28;20044;-69
2023/10/12 17:10:35;;;;;;;32.03;21.48;;;24.40;98.90;;;;;;5028482;28;20068;-69